createdAt,value
2022-10-22T00:02:24.435Z,10.52
2022-10-22T00:04:51.170Z,11.45
2022-10-22T00:07:18.255Z,14.55
2022-10-22T00:09:44.745Z,29.75
2022-10-22T00:12:11.325Z,19.67
2022-10-22T00:14:37.839Z,12.98
2022-10-22T00:17:06.952Z,13.02
2022-10-22T00:19:37.792Z,14.27
2022-10-22T00:22:05.861Z,13.20
2022-10-22T00:26:58.858Z,14.02
2022-10-22T00:29:25.360Z,18.25
2022-10-22T00:31:51.891Z,13.40
2022-10-22T00:34:20.150Z,25.17
2022-10-22T00:36:47.155Z,18.58
2022-10-22T00:39:17.748Z,12.18
2022-10-22T00:41:44.620Z,15.15
2022-10-22T00:44:29.891Z,12.55
2022-10-22T00:46:56.373Z,13.60
2022-10-22T00:49:22.835Z,10.70
2022-10-22T00:51:49.378Z,16.10
2022-10-22T00:54:15.863Z,15.38
2022-10-22T00:56:42.328Z,9.38
2022-10-22T01:01:40.451Z,18.23
2022-10-22T01:04:06.960Z,10.63
2022-10-22T01:06:34.011Z,18.08
2022-10-22T01:09:10.199Z,12.88
2022-10-22T01:11:55.528Z,27.75
2022-10-22T01:14:24.989Z,13.57
2022-10-22T01:16:51.394Z,15.77
2022-10-22T01:19:33.126Z,14.27
2022-10-22T01:22:02.786Z,12.93
2022-10-22T01:24:35.357Z,14.93
2022-10-22T01:27:13.317Z,18.58
2022-10-22T01:29:45.462Z,7.17
2022-10-22T01:32:15.722Z,9.48
2022-10-22T01:34:44.279Z,16.83
2022-10-22T01:37:12.071Z,9.82
2022-10-22T01:39:40.338Z,12.52
2022-10-22T01:42:06.784Z,11.50
2022-10-22T01:47:25.044Z,15.35
2022-10-22T01:49:51.523Z,16.95
2022-10-22T01:52:18.017Z,12.18
2022-10-22T01:54:51.988Z,16.02
2022-10-22T01:57:28.423Z,14.13
2022-10-22T02:00:01.009Z,13.85
2022-10-22T02:05:20.351Z,11.95
2022-10-22T02:07:52.034Z,8.82
2022-10-22T02:10:19.581Z,12.13
2022-10-22T02:12:48.375Z,11.85
2022-10-22T02:15:15.861Z,11.75
2022-10-22T02:17:43.684Z,12.35
2022-10-22T02:20:12.517Z,13.02
2022-10-22T02:22:40.204Z,19.08
2022-10-22T02:25:07.108Z,15.07
2022-10-22T02:27:39.277Z,10.27
2022-10-22T02:30:07.536Z,18.55
2022-10-22T02:32:57.016Z,16.58
2022-10-22T02:35:24.696Z,10.90
2022-10-22T02:37:51.718Z,23.27
2022-10-22T02:40:18.515Z,20.58
2022-10-22T02:42:46.855Z,17.45
2022-10-22T02:45:13.317Z,48.67
2022-10-22T02:47:39.818Z,194.20
2022-10-22T02:50:09.494Z,206.30
2022-10-22T02:52:37.615Z,88.78
2022-10-22T02:55:04.811Z,36.22
2022-10-22T02:57:31.452Z,12.85
2022-10-22T02:59:57.902Z,14.43
2022-10-22T03:02:24.448Z,19.40
2022-10-22T03:04:50.866Z,13.52
2022-10-22T03:07:17.321Z,9.48
2022-10-22T03:09:43.896Z,9.35
2022-10-22T03:12:10.326Z,14.02
2022-10-22T03:14:36.813Z,9.48
2022-10-22T03:17:03.437Z,9.93
2022-10-22T03:19:29.869Z,15.82
2022-10-22T03:21:56.295Z,19.20
2022-10-22T03:24:25.320Z,15.13
2022-10-22T03:26:52.936Z,11.35
2022-10-22T03:29:21.282Z,24.00
2022-10-22T03:31:47.740Z,11.57
2022-10-22T03:34:14.781Z,11.25
2022-10-22T03:36:41.525Z,12.25
2022-10-22T03:39:08.130Z,12.95
2022-10-22T03:41:34.856Z,9.27
2022-10-22T03:44:02.613Z,22.33
2022-10-22T03:46:29.193Z,23.00
2022-10-22T03:48:55.645Z,20.15
2022-10-22T03:51:22.113Z,19.90
2022-10-22T03:53:48.625Z,21.80
2022-10-22T03:56:15.087Z,20.35
2022-10-22T03:58:41.653Z,19.27
2022-10-22T04:01:09.498Z,12.73
2022-10-22T04:03:36.027Z,19.17
2022-10-22T04:06:06.935Z,21.30
2022-10-22T04:08:33.779Z,21.17
2022-10-22T04:11:00.332Z,24.17
2022-10-22T04:13:27.019Z,21.38
2022-10-22T04:15:53.584Z,15.60
2022-10-22T04:18:20.789Z,29.73
2022-10-22T04:20:47.810Z,28.57
2022-10-22T04:23:14.515Z,21.73
2022-10-22T04:25:40.962Z,28.63
2022-10-22T04:28:08.354Z,17.40
2022-10-22T04:30:35.150Z,15.63
2022-10-22T04:33:01.640Z,25.00
2022-10-22T04:35:28.450Z,15.82
2022-10-22T04:37:55.168Z,16.27
2022-10-22T04:40:21.682Z,27.52
2022-10-22T04:42:48.192Z,99.45
2022-10-22T04:45:15.789Z,39.22
2022-10-22T04:47:42.556Z,28.10
2022-10-22T04:50:09.380Z,31.35
2022-10-22T04:52:35.889Z,17.50
2022-10-22T04:55:02.378Z,24.15
2022-10-22T04:57:33.515Z,20.02
2022-10-22T05:00:00.015Z,19.88
2022-10-22T05:02:26.730Z,18.08
2022-10-22T05:04:53.221Z,34.03
2022-10-22T05:07:19.712Z,20.88
2022-10-22T05:09:46.168Z,15.05
2022-10-22T05:12:12.834Z,19.13
2022-10-22T05:14:43.902Z,20.25
2022-10-22T05:17:11.387Z,18.00
2022-10-22T05:19:38.060Z,12.88
2022-10-22T05:22:05.103Z,15.18
2022-10-22T05:24:32.501Z,18.63
2022-10-22T05:26:59.646Z,19.30
2022-10-22T05:29:26.814Z,30.02
2022-10-22T05:31:53.470Z,26.63
2022-10-22T05:34:20.027Z,27.17
2022-10-22T05:36:46.769Z,26.10
2022-10-22T05:39:13.262Z,35.00
2022-10-22T05:41:39.768Z,24.23
2022-10-22T05:44:06.269Z,29.23
2022-10-22T05:46:34.521Z,22.27
2022-10-22T05:49:02.430Z,17.83
2022-10-22T05:51:30.125Z,26.65
2022-10-22T05:53:58.016Z,20.15
2022-10-22T05:56:25.036Z,23.20
2022-10-22T05:58:51.658Z,27.25
2022-10-22T06:01:22.773Z,23.60
2022-10-22T06:03:49.351Z,25.58
2022-10-22T06:06:18.672Z,23.67
2022-10-22T06:08:46.377Z,23.85
2022-10-22T06:11:13.261Z,27.75
2022-10-22T06:13:39.837Z,30.85
2022-10-22T06:16:06.380Z,25.02
2022-10-22T06:18:33.179Z,27.20
2022-10-22T06:21:04.020Z,28.38
2022-10-22T06:23:30.450Z,34.35
2022-10-22T06:25:58.085Z,24.60
2022-10-22T06:30:57.344Z,32.53
2022-10-22T06:33:23.800Z,20.40
2022-10-22T06:35:50.283Z,13.13
2022-10-22T06:38:16.844Z,22.80
2022-10-22T06:40:46.145Z,17.45
2022-10-22T06:43:13.014Z,15.93
2022-10-22T06:45:39.495Z,21.58
2022-10-22T06:48:06.002Z,15.75
2022-10-22T06:50:34.371Z,12.07
2022-10-22T06:53:02.457Z,17.10
2022-10-22T06:55:28.940Z,16.33
2022-10-22T06:57:55.590Z,19.88
2022-10-22T07:00:22.379Z,16.65
2022-10-22T07:02:56.475Z,14.55
2022-10-22T07:05:25.719Z,17.02
2022-10-22T07:07:52.207Z,13.82
2022-10-22T07:10:18.847Z,16.80
2022-10-22T07:12:45.487Z,24.30
2022-10-22T07:15:12.324Z,22.08
2022-10-22T07:20:05.807Z,16.60
2022-10-22T07:22:33.004Z,16.90
2022-10-22T07:25:01.588Z,16.27
2022-10-22T07:27:30.534Z,16.20
2022-10-22T07:29:57.063Z,18.33
2022-10-22T07:32:23.997Z,12.07
2022-10-22T07:34:50.650Z,13.52
2022-10-22T07:37:17.180Z,13.52
2022-10-22T07:39:46.341Z,14.30
2022-10-22T07:42:13.976Z,12.48
2022-10-22T07:44:40.578Z,20.23
2022-10-22T07:47:07.217Z,10.35
2022-10-22T07:49:33.645Z,13.18
2022-10-22T07:52:00.096Z,16.95
2022-10-22T07:54:26.561Z,15.40
2022-10-22T07:56:53.049Z,16.02
2022-10-22T07:59:19.585Z,12.73
2022-10-22T08:01:47.066Z,7.45
2022-10-22T08:04:13.596Z,7.60
2022-10-22T08:06:42.524Z,9.32
2022-10-22T08:09:12.130Z,8.60
2022-10-22T08:11:39.198Z,12.93
2022-10-22T08:14:05.689Z,16.10
2022-10-22T08:16:32.158Z,10.65
2022-10-22T08:18:59.030Z,9.40
2022-10-22T08:21:25.481Z,11.15
2022-10-22T08:23:52.144Z,10.50
2022-10-22T08:26:18.642Z,7.90
2022-10-22T08:28:45.180Z,8.85
2022-10-22T08:31:11.679Z,7.75
2022-10-22T08:33:39.036Z,6.63
2022-10-22T08:36:05.725Z,10.30
2022-10-22T08:38:32.169Z,3.42
2022-10-22T08:41:14.126Z,4.18
2022-10-22T08:43:59.011Z,7.68
2022-10-22T08:46:44.553Z,7.85
2022-10-22T08:49:19.016Z,10.23
2022-10-22T08:51:45.525Z,6.65
2022-10-22T08:54:30.765Z,3.55
2022-10-22T08:57:04.214Z,10.43
2022-10-22T08:59:52.594Z,4.43
2022-10-22T09:02:19.129Z,7.60
2022-10-22T09:04:50.003Z,10.13
2022-10-22T09:07:16.546Z,5.65
2022-10-22T09:09:46.899Z,10.10
2022-10-22T09:12:20.209Z,12.60
2022-10-22T09:14:47.137Z,3.90
2022-10-22T09:17:22.851Z,6.78
2022-10-22T09:20:02.258Z,4.25
2022-10-22T09:22:47.389Z,8.77
2022-10-22T09:25:16.904Z,5.40
2022-10-22T09:27:43.918Z,10.90
2022-10-22T09:30:18.236Z,13.27
2022-10-22T09:32:44.943Z,8.98
2022-10-22T09:35:12.757Z,10.48
2022-10-22T09:37:48.772Z,10.18
2022-10-22T09:40:15.863Z,8.95
2022-10-22T09:42:44.019Z,6.88
2022-10-22T09:45:21.220Z,9.27
2022-10-22T09:48:01.639Z,12.25
2022-10-22T09:50:46.092Z,10.57
2022-10-22T09:53:35.539Z,5.97
2022-10-22T09:56:06.777Z,8.50
2022-10-22T09:58:41.646Z,11.77
2022-10-22T10:01:08.117Z,21.60
2022-10-22T10:03:34.597Z,4.68
2022-10-22T10:06:05.067Z,10.07
2022-10-22T10:08:32.913Z,10.95
2022-10-22T10:11:19.311Z,9.38
2022-10-22T10:13:51.989Z,11.45
2022-10-22T10:16:41.154Z,8.27
2022-10-22T10:19:08.167Z,13.00
2022-10-22T10:21:43.784Z,9.70
2022-10-22T10:24:16.668Z,10.63
2022-10-22T10:26:47.778Z,9.18
2022-10-22T10:29:33.782Z,8.02
2022-10-22T10:32:22.294Z,7.63
2022-10-22T10:34:50.792Z,6.13
2022-10-22T10:37:17.452Z,7.00
2022-10-22T10:39:56.064Z,7.60
2022-10-22T10:42:31.861Z,6.93
2022-10-22T10:45:18.613Z,5.88
2022-10-22T10:48:03.346Z,11.40
2022-10-22T10:50:48.177Z,6.80
2022-10-22T10:53:20.349Z,6.30
2022-10-22T10:55:56.192Z,6.75
2022-10-22T10:58:34.593Z,10.43
2022-10-22T11:01:05.340Z,5.95
2022-10-22T11:03:37.108Z,5.72
2022-10-22T11:06:07.667Z,15.77
2022-10-22T11:08:45.945Z,7.57
2022-10-22T11:14:18.432Z,7.38
2022-10-22T11:16:53.564Z,6.07
2022-10-22T11:19:46.110Z,8.90
2022-10-22T11:24:38.386Z,4.97
2022-10-22T11:27:06.885Z,10.20
2022-10-22T11:29:44.504Z,9.52
2022-10-22T11:32:20.950Z,7.75
2022-10-22T11:34:54.351Z,8.15
2022-10-22T11:37:21.959Z,10.02
2022-10-22T11:39:53.716Z,8.65
2022-10-22T11:42:22.108Z,14.57
2022-10-22T11:44:57.735Z,13.50
2022-10-22T11:47:25.723Z,7.53
2022-10-22T11:50:02.439Z,7.60
2022-10-22T11:52:32.010Z,7.50
2022-10-22T11:55:01.582Z,18.33
2022-10-22T11:57:35.363Z,10.45
2022-10-22T12:00:06.482Z,12.55
2022-10-22T12:02:41.157Z,10.05
2022-10-22T12:05:40.611Z,12.00
2022-10-22T12:08:14.784Z,11.07
2022-10-22T12:11:03.913Z,9.25
2022-10-22T12:13:31.857Z,9.00
2022-10-22T12:15:59.732Z,8.07
2022-10-22T12:18:35.315Z,8.05
2022-10-22T12:21:01.777Z,10.57
2022-10-22T12:23:34.293Z,11.63
2022-10-22T12:26:00.917Z,8.10
2022-10-22T12:28:27.437Z,8.70
2022-10-22T12:30:53.962Z,11.65
2022-10-22T12:33:22.880Z,11.50
2022-10-22T12:35:52.968Z,15.77
2022-10-22T12:38:21.425Z,15.38
2022-10-22T12:40:49.107Z,8.90
2022-10-22T12:43:17.044Z,11.63
2022-10-22T12:45:44.743Z,11.05
2022-10-22T12:48:14.078Z,8.18
2022-10-22T12:50:42.429Z,7.88
2022-10-22T12:53:15.070Z,8.77
2022-10-22T12:55:42.123Z,10.60
2022-10-22T12:58:09.816Z,15.45
2022-10-22T13:00:36.777Z,8.13
2022-10-22T13:03:05.288Z,9.95
2022-10-22T13:05:38.867Z,8.60
2022-10-22T13:08:13.229Z,10.50
2022-10-22T13:10:40.938Z,11.32
2022-10-22T13:13:07.777Z,14.27
2022-10-22T13:15:38.920Z,17.83
2022-10-22T13:18:27.084Z,6.15
2022-10-22T13:20:53.599Z,14.07
2022-10-22T13:23:21.966Z,7.53
2022-10-22T13:25:59.379Z,13.43
2022-10-22T13:28:26.646Z,9.85
2022-10-22T13:30:54.302Z,16.10
2022-10-22T13:33:27.082Z,10.25
2022-10-22T13:35:56.238Z,8.05
2022-10-22T13:38:24.948Z,10.18
2022-10-22T13:40:51.474Z,13.38
2022-10-22T13:43:18.042Z,5.40
2022-10-22T13:45:45.428Z,11.98
2022-10-22T13:48:21.783Z,10.15
2022-10-22T13:50:48.826Z,9.65
2022-10-22T13:53:18.909Z,9.80
2022-10-22T13:55:46.188Z,14.10
2022-10-22T13:58:14.293Z,12.13
2022-10-22T14:03:10.110Z,16.92
2022-10-22T14:05:36.729Z,7.75
2022-10-22T14:08:03.999Z,8.90
2022-10-22T14:10:30.587Z,11.80
2022-10-22T14:12:58.583Z,10.45
2022-10-22T14:15:25.782Z,13.50
2022-10-22T14:17:57.100Z,7.32
2022-10-22T14:20:28.042Z,11.18
2022-10-22T14:22:55.184Z,8.07
2022-10-22T14:25:23.181Z,11.52
2022-10-22T14:27:50.049Z,10.32
2022-10-22T14:30:17.923Z,8.75
2022-10-22T14:32:44.541Z,15.45
2022-10-22T14:35:14.801Z,7.47
2022-10-22T14:37:41.801Z,13.70
2022-10-22T14:40:09.075Z,13.43
2022-10-22T14:42:40.382Z,6.80
2022-10-22T14:45:07.689Z,10.70
2022-10-22T14:47:34.278Z,12.32
2022-10-22T14:50:01.942Z,10.27
2022-10-22T14:52:28.576Z,9.57
2022-10-22T14:54:55.166Z,7.95
2022-10-22T14:57:21.751Z,9.20
2022-10-22T14:59:48.359Z,13.38
2022-10-22T15:02:14.998Z,10.13
2022-10-22T15:04:41.608Z,10.00
2022-10-22T15:07:08.180Z,9.85
2022-10-22T15:09:34.813Z,21.83
2022-10-22T15:12:01.408Z,19.05
2022-10-22T15:14:27.977Z,13.25
2022-10-22T15:16:54.561Z,25.52
2022-10-22T15:19:21.230Z,28.55
2022-10-22T15:21:47.861Z,54.88
2022-10-22T15:24:14.627Z,46.10
2022-10-22T15:26:41.190Z,30.75
2022-10-22T15:29:08.483Z,35.10
2022-10-22T15:31:42.544Z,30.87
2022-10-22T15:34:09.138Z,35.35
2022-10-22T15:36:35.776Z,31.23
2022-10-22T15:39:06.556Z,33.42
2022-10-22T15:41:34.712Z,55.17
2022-10-22T15:44:01.321Z,30.63
2022-10-22T15:46:33.199Z,28.60
2022-10-22T15:49:02.017Z,34.53
2022-10-22T15:51:28.550Z,26.38
2022-10-22T15:53:56.345Z,23.17
2022-10-22T15:56:23.442Z,41.60
2022-10-22T15:58:54.410Z,36.15
2022-10-22T16:01:21.190Z,23.17
2022-10-22T16:03:47.968Z,33.17
2022-10-22T16:06:14.573Z,31.00
2022-10-22T16:08:41.228Z,40.50
2022-10-22T16:11:07.879Z,34.78
2022-10-22T16:13:36.846Z,38.38
2022-10-22T16:16:08.255Z,52.42
2022-10-22T16:18:34.976Z,62.42
2022-10-22T16:21:01.669Z,68.43
2022-10-22T16:23:28.249Z,53.08
2022-10-22T16:25:54.905Z,65.15
2022-10-22T16:28:21.567Z,73.82
2022-10-22T16:30:48.374Z,70.53
2022-10-22T16:33:15.000Z,59.05
2022-10-22T16:35:42.426Z,55.67
2022-10-22T16:38:10.494Z,63.55
2022-10-22T16:40:37.115Z,65.25
2022-10-22T16:43:03.632Z,67.85
2022-10-22T16:45:30.196Z,87.95
2022-10-22T16:47:56.761Z,82.38
2022-10-22T16:50:23.540Z,91.93
2022-10-22T16:52:50.968Z,98.15
2022-10-22T16:55:17.594Z,89.27
2022-10-22T16:57:46.208Z,94.40
2022-10-22T17:00:13.241Z,97.22
2022-10-22T17:02:40.143Z,90.82
2022-10-22T17:05:07.206Z,98.22
2022-10-22T17:07:33.797Z,96.40
2022-10-22T17:10:01.244Z,94.00
2022-10-22T17:12:27.931Z,93.47
2022-10-22T17:14:56.752Z,92.53
2022-10-22T17:17:23.292Z,111.43
2022-10-22T17:19:49.748Z,102.68
2022-10-22T17:22:18.358Z,96.05
2022-10-22T17:24:45.408Z,109.70
2022-10-22T17:27:12.006Z,92.60
2022-10-22T17:29:38.683Z,89.03
2022-10-22T17:32:05.507Z,93.18
2022-10-22T17:34:33.317Z,99.25
2022-10-22T17:37:00.374Z,93.30
2022-10-22T17:39:27.101Z,104.32
2022-10-22T17:41:54.008Z,98.57
2022-10-22T17:44:20.618Z,82.97
2022-10-22T17:46:49.620Z,75.30
2022-10-22T17:49:17.584Z,79.15
2022-10-22T17:51:44.327Z,75.38
2022-10-22T17:54:12.373Z,94.05
2022-10-22T17:56:40.412Z,85.53
2022-10-22T18:01:34.828Z,97.57
2022-10-22T18:04:02.867Z,84.50
2022-10-22T18:06:31.174Z,99.57
2022-10-22T18:11:26.110Z,88.28
2022-10-22T18:13:53.868Z,87.55
2022-10-22T18:16:20.781Z,92.00
2022-10-22T18:18:48.354Z,98.10
2022-10-22T18:21:15.946Z,92.63
2022-10-22T18:23:42.918Z,105.93
2022-10-22T18:26:09.501Z,105.63
2022-10-22T18:28:36.200Z,95.30
2022-10-22T18:31:07.114Z,110.35
2022-10-22T18:33:34.636Z,102.38
2022-10-22T18:36:05.271Z,95.75
2022-10-22T18:38:31.822Z,99.85
2022-10-22T18:40:58.289Z,105.38
2022-10-22T18:43:24.787Z,94.63
2022-10-22T18:45:51.326Z,95.30
2022-10-22T18:48:18.776Z,98.82
2022-10-22T18:50:45.854Z,100.20
2022-10-22T18:53:13.146Z,91.70
2022-10-22T18:55:40.363Z,85.00
2022-10-22T18:58:08.116Z,75.78
2022-10-22T19:00:35.446Z,79.55
2022-10-22T19:03:03.325Z,83.00
2022-10-22T19:05:29.957Z,76.50
2022-10-22T19:07:56.460Z,78.60
2022-10-22T19:10:22.922Z,78.80
2022-10-22T19:12:49.448Z,80.70
2022-10-22T19:15:16.159Z,70.18
2022-10-22T19:17:42.891Z,58.25
2022-10-22T19:20:10.002Z,60.30
2022-10-22T19:22:36.517Z,63.53
2022-10-22T19:25:04.272Z,62.70
2022-10-22T19:27:32.765Z,64.95
2022-10-22T19:29:59.302Z,67.47
2022-10-22T19:32:28.776Z,67.80
2022-10-22T19:34:57.470Z,81.65
2022-10-22T19:37:23.937Z,96.65
2022-10-22T19:39:50.500Z,78.20
2022-10-22T19:42:17.123Z,72.20
2022-10-22T19:44:43.649Z,73.30
2022-10-22T19:47:11.708Z,78.82
2022-10-22T19:49:38.319Z,74.93
2022-10-22T19:52:05.281Z,80.25
2022-10-22T19:54:32.950Z,74.07
2022-10-22T19:59:29.917Z,80.50
2022-10-22T20:01:57.979Z,69.85
2022-10-22T20:04:25.939Z,69.72
2022-10-22T20:06:52.534Z,67.97
2022-10-22T20:09:19.136Z,76.40
2022-10-22T20:11:46.171Z,74.28
2022-10-22T20:14:13.421Z,72.88
2022-10-22T20:16:40.367Z,64.50
2022-10-22T20:19:07.797Z,69.78
2022-10-22T20:21:35.177Z,75.60
2022-10-22T20:24:01.885Z,86.17
2022-10-22T20:26:28.539Z,85.10
2022-10-22T20:28:55.823Z,77.32
2022-10-22T20:31:24.108Z,82.68
2022-10-22T20:36:18.980Z,84.43
2022-10-22T20:38:48.162Z,81.43
2022-10-22T20:41:17.283Z,69.75
2022-10-22T20:43:44.935Z,77.35
2022-10-22T20:46:19.221Z,74.65
2022-10-22T20:48:45.934Z,74.00
2022-10-22T20:51:12.914Z,75.70
2022-10-22T20:53:39.540Z,91.45
2022-10-22T20:56:06.884Z,83.60
2022-10-22T20:58:33.620Z,77.43
2022-10-22T21:01:09.381Z,84.35
2022-10-22T21:03:39.598Z,83.75
2022-10-22T21:06:06.247Z,87.57
2022-10-22T21:08:32.984Z,83.30
2022-10-22T21:10:59.576Z,88.13
2022-10-22T21:13:26.336Z,80.70
2022-10-22T21:15:52.962Z,82.13
2022-10-22T21:18:19.584Z,78.40
2022-10-22T21:20:46.345Z,95.25
2022-10-22T21:23:13.148Z,90.75
2022-10-22T21:25:42.080Z,83.57
2022-10-22T21:28:11.046Z,89.97
2022-10-22T21:30:44.404Z,75.65
2022-10-22T21:33:11.106Z,78.55
2022-10-22T21:35:37.803Z,73.50
2022-10-22T21:38:05.397Z,74.93
2022-10-22T21:40:32.515Z,58.65
2022-10-22T21:42:59.191Z,73.75
2022-10-22T21:45:25.921Z,85.32
2022-10-22T21:47:52.671Z,68.63
2022-10-22T21:50:19.468Z,69.32
2022-10-22T21:52:46.315Z,75.25
2022-10-22T21:55:13.216Z,76.38
2022-10-22T21:57:40.133Z,70.03
2022-10-22T22:00:07.730Z,73.45
2022-10-22T22:02:34.631Z,55.30
2022-10-22T22:05:01.373Z,78.75
2022-10-22T22:07:28.159Z,93.20
2022-10-22T22:09:54.910Z,81.10
2022-10-22T22:12:21.557Z,83.20
2022-10-22T22:14:48.221Z,87.05
2022-10-22T22:17:16.650Z,80.50
2022-10-22T22:19:43.397Z,80.50
2022-10-22T22:22:10.349Z,80.85
2022-10-22T22:24:38.362Z,74.78
2022-10-22T22:27:05.057Z,73.38
2022-10-22T22:29:31.976Z,77.70
2022-10-22T22:31:58.766Z,76.47
2022-10-22T22:34:25.518Z,74.75
2022-10-22T22:36:52.201Z,71.20
2022-10-22T22:39:20.049Z,75.32
2022-10-22T22:41:47.076Z,79.38
2022-10-22T22:44:13.773Z,66.13
2022-10-22T22:46:40.543Z,83.47
2022-10-22T22:49:07.380Z,78.57
2022-10-22T22:51:34.311Z,73.65
2022-10-22T22:54:01.590Z,76.15
2022-10-22T22:56:29.546Z,78.80
2022-10-22T22:58:56.407Z,75.07
2022-10-22T23:01:25.100Z,77.95
2022-10-22T23:03:56.598Z,75.25
2022-10-22T23:06:24.020Z,67.85
2022-10-22T23:08:51.089Z,70.20
2022-10-22T23:11:18.156Z,81.65
2022-10-22T23:13:45.043Z,78.22
2022-10-22T23:16:16.476Z,74.30
2022-10-22T23:18:43.595Z,81.47
2022-10-22T23:21:12.534Z,83.13
2022-10-22T23:23:39.310Z,73.38
2022-10-22T23:26:05.923Z,78.75
2022-10-22T23:28:32.715Z,86.07
2022-10-22T23:30:59.304Z,72.53
2022-10-22T23:33:25.961Z,72.95
2022-10-22T23:35:52.543Z,78.10
2022-10-22T23:38:19.085Z,76.88
2022-10-22T23:40:45.613Z,84.78
2022-10-22T23:43:12.134Z,91.93
2022-10-22T23:45:38.731Z,73.45
2022-10-22T23:48:05.409Z,70.80
2022-10-22T23:50:32.023Z,69.28
2022-10-22T23:52:58.584Z,73.07
2022-10-22T23:55:26.011Z,81.00
2022-10-22T23:57:53.166Z,72.07
